Edwards Creek Valley, Nevada Weather observations

Data are for observation ending at time listed.
 Day   Time    Ave.   Ave.  Ave.  Vector   Max.   Stn.    Total    Solar   Ave.  
  of    of     Air    Rel.  Wind   Wind    Wind   Baro.  Precip.   Rad.    Soil  
Year   Day     Temp.  Hum.  Speed  Dir.    Gust   Pres.                    Temp. 
2015   (PST)    F      %     mph   deg.    mph     mb.     in.     W/m2     F   
------------------------------------------------------------------------------
  30   17:30   39.7    74    9.7    29     14.2    843     0.00       0     42.8
  30   17:40   39.4    75    9.8    35     15.4    843     0.00       0     42.7
  30   17:50   39.3    76    9.2    30     13.0    843     0.00       0     42.5
  30   18:00   39.2    76    7.5    35     10.4    843     0.00       0     42.4
  30   18:10   39.0    76    7.0    43     10.0    843     0.00       0     42.2
  30   18:20   38.8    77    8.0    53     12.1    844     0.00       0     42.1
  30   18:30   38.4    78    9.0    52     13.3    844     0.00       0     42.0
  30   18:40   38.0    78    8.6    42     11.2    844     0.00       0     41.8
  30   18:50   37.6    79    8.0    44     10.5    844     0.00       0     41.7
  30   19:00   37.5    79    8.4    38     11.7    844     0.00       0     41.6
  30   19:10   37.5    78    8.8    39     13.4    844     0.00       0     41.4
  30   19:20   37.5    78    8.6    44     12.0    843     0.00       0     41.3
  30   19:30   37.4    79    7.3    45      9.3    844     0.00       0     41.2
  30   19:40   37.2    79    7.2    48      9.9    844     0.00       0     41.1
  30   19:50   37.3    79    7.1    57     10.2    844     0.00       0     41.0
  30   20:00   37.2    79    5.1    80      8.3    843     0.00       0     40.9
  30   20:10   37.0    79    7.0    92     10.1    843     0.00       0     40.8
  30   20:20   37.0    80    7.4    80     11.5    844     0.00       0     40.7
  30   20:30   36.9    80    6.9    67      9.9    844     0.00       0     40.6
  30   20:40   36.8    80    7.6    67     11.0    844     0.00       0     40.6
  30   20:50   36.8    80    7.4    69     10.3    844     0.00       0     40.5
  30   21:00   36.8    80    5.2    54      7.4    844     0.00       0     40.4
  30   21:10   36.8    80    6.4    57     10.8    844     0.00       0     40.3
  30   21:20   36.8    80    7.6    75     11.3    844     0.00       0     40.2
  30   21:30   36.6    80    6.9    84      9.6    844     0.00       0     40.2
  30   21:40   36.6    80    7.1    85     10.6    844     0.00       0     40.1
  30   21:50   36.7    79    6.4    68      9.7    844     0.00       0     40.1
  30   22:00   36.6    79    5.6    47      8.8    844     0.00       0     40.0
  30   22:10   36.7    79    6.1    41      8.8    844     0.00       0     39.9
  30   22:20   36.6    79    3.9    35      6.9    844     0.00       0     39.9
  30   22:30   36.7    79    4.6    46      6.9    844     0.00       0     39.8
  30   22:40   36.5    79    4.4    56      6.6    844     0.00       0     39.8
  30   22:50   36.4    80    5.0    61      7.3    844     0.00       0     39.7
  30   23:00   36.3    80    3.3    70      5.6    845     0.00       0     39.7
  30   23:10   36.2    80    4.5    54      8.1    845     0.00       0     39.6
  30   23:20   36.3    79    7.6    43     10.7    845     0.00       0     39.6
  30   23:30   36.2    79    6.3    46      9.2    845     0.00       0     39.5
  30   23:40   35.9    80    7.2    61     10.5    845     0.00       0     39.5
  30   23:50   35.8    80    6.6    56      9.0    845     0.00       0     39.4
  31    0:00   35.7    80    6.2    49      9.4    845     0.00       0     39.3
  31    0:10   35.7    81    5.3    44      7.5    844     0.00       0     39.3
  31    0:20   35.7    81    4.4    37      6.4    844     0.00       0     39.2
  31    0:30   35.7    81    4.3    31      6.4    844     0.00       0     39.2
  31    0:40   35.5    81    4.3    48      6.1    844     0.00       0     39.1
  31    0:50   35.5    81    4.2    62      5.8    844     0.00       0     39.1
  31    1:00   35.5    81    3.6    71      5.0    844     0.00       0     39.0
  31    1:10   35.4    81    3.8    84      5.2    844     0.00       0     39.0
  31    1:20   35.4    80    3.7    60      5.7    844     0.00       0     38.9
  31    1:30   35.3    80    4.1    51      6.3    844     0.00       0     38.9
  31    1:40   35.0    81    4.4    58      6.1    845     0.00       0     38.9
  31    1:50   34.7    82    4.2    52      6.4    845     0.00       0     38.8
  31    2:00   34.6    82    4.8    39      6.8    844     0.00       0     38.7
  31    2:10   34.2    83    3.8    29      6.1    844     0.00       0     38.6
  31    2:20   34.1    83    2.3    33      3.9    844     0.00       0     38.5
  31    2:30   34.2    84    2.4    38      4.7    845     0.00       0     38.5
  31    2:40   34.2    83    3.6    54      5.1    845     0.00       0     38.4
  31    2:50   34.0    83    5.3    59      7.1    844     0.00       0     38.4
  31    3:00   33.5    83    6.9    53      9.1    844     0.00       0     38.3
  31    3:10   32.6    84    4.8    40      7.1    844     0.00       0     38.1
  31    3:20   31.9    85    4.9    20      6.9    845     0.00       0     37.9
  31    3:30   30.8    86    2.9    81      4.5    845     0.00       0     37.7
  31    3:40   30.2    88    3.5   129      4.7    844     0.00       0     37.6
  31    3:50   30.3    87    2.7   132      3.5    844     0.00       0     37.4
  31    4:00   30.0    88    1.3    76      2.1    844     0.00       0     37.2
  31    4:10   30.1    88    2.4     9      2.9    845     0.00       0     37.0
  31    4:20   29.9    88    3.0   339      4.2    845     0.00       0     36.9
  31    4:30   29.5    89    2.1   306      3.1    845     0.00       0     36.8
  31    4:40   29.2    89    0.6   279      1.5    845     0.00       0     36.7
  31    4:50   29.3    89    0.4   325      1.0    845     0.00       0     36.5
  31    5:00   29.0    89    2.2   202      3.7    845     0.00       0     36.4
  31    5:10   28.0    90    1.5   199      3.1    845     0.00       0     36.3
  31    5:20   27.5    90    0.5   161      1.5    845     0.00       0     36.1
  31    5:30   27.1    91    1.9   168      3.5    845     0.00       0     36.0
  31    5:40   26.5    91    2.3   189      3.4    846     0.00       0     35.8
  31    5:50   27.2    92    3.9    94      5.5    846     0.00       0     35.6
  31    6:00   27.7    90    3.2    92      5.6    846     0.00       0     35.4
  31    6:10   27.4    90    3.6    51      4.4    846     0.00       0     35.2
  31    6:20   25.8    89    1.6   351      2.8    846     0.00       0     35.1
  31    6:30   25.7    91    1.9   320      2.5    846     0.00       0     35.0
  31    6:40   26.2    92    2.2   335      2.8    846     0.00       0     34.9
  31    6:50   25.7    91    3.8   320      4.7    846     0.00       1     34.8
  31    7:00   24.9    92    4.2   332      4.9    846     0.00       2     34.7
  31    7:10   24.9    92    4.4   348      5.3    846     0.00       5     34.6
  31    7:20   24.1    92    3.4    10      4.7    846     0.00      10     34.5
  31    7:30   23.9    93    0.6    65      2.7    847     0.00      31     34.4
  31    7:40   25.4    94    1.4   193      2.9    846     0.00      79     34.3
  31    7:50   27.4    92    2.4   174      3.5    846     0.00     115     34.2
  31    8:00   28.9    90    1.6   195      3.2    847     0.00     153     34.1
  31    8:10   30.2    88    2.0   177      3.1    846     0.00     185     34.0
  31    8:20   31.7    85    2.6   145      4.2    847     0.00     213     34.0
  31    8:30   32.8    83    2.1   144      4.2    847     0.00     241     34.0
  31    8:40   35.4    78    0.6   152      1.9    847     0.00     260     34.0
  31    8:50   37.1    72    1.2    76      4.0    847     0.00     275     34.1
  31    9:00   35.5    75    2.9    79      4.8    848     0.00     303     34.4
  31    9:10   35.4    76    2.6    63      5.1    848     0.00     330     34.8
  31    9:20   35.6    75    3.3    59      7.1    848     0.00     355     35.2
  31    9:30   35.7    74    3.1    41      5.8    848     0.00     379     35.7
  31    9:40   35.9    73    3.1    31      5.3    848     0.00     403     36.1
  31    9:50   36.4    72    2.9    49      6.0    848     0.00     425     36.5
  31   10:00   37.0    71    3.0    24      6.3    848     0.00     448     37.0
  31   10:10   37.4    68    4.5    44      7.7    848     0.00     466     37.4
  31   10:20   38.0    66    4.2    38      7.3    848     0.00     484     37.8
  31   10:30   38.1    64    4.6     2      9.6    848     0.00     500     38.1
  31   10:40   38.6    61    3.8    18      6.9    849     0.00     517     38.5
  31   10:50   38.9    60    3.7    22      7.3    848     0.00     529     39.0
  31   11:00   39.5    58    3.3   356      6.3    848     0.00     543     39.5
  31   11:10   40.1    54    2.4    14      5.9    848     0.00     554     39.7
  31   11:20   40.6    53    3.2    10      6.5    848     0.00     563     39.8
  31   11:30   41.6    49    1.9   301      4.1    848     0.00     570     40.2
  31   11:40   42.2    48    1.7     2      4.8    848     0.00     577     40.6
  31   11:50   42.5    47    3.4    90      6.4    848     0.00     580     41.2
  31   12:00   43.0    46    2.2   219      4.5    848     0.00     584     41.8
  31   12:10   43.5    43    1.5    73      4.4    848     0.00     585     42.2
  31   12:20   43.9    42    1.5   220      3.4    848     0.00     584     42.5
  31   12:30   44.3    40    1.8    47      6.4    847     0.00     580     42.6
  31   12:40   45.2    38    3.4    92      7.3    847     0.00     576     42.8
  31   12:50   45.3    35    4.1    84      7.8    847     0.00     571     43.1
  31   13:00   45.9    34    2.6    91      8.6    847     0.00     563     43.5
  31   13:10   45.8    34    4.8    53      9.1    846     0.00     554     44.0
  31   13:20   46.3    32    2.9    81      9.4    847     0.00     544     44.5
  31   13:30   45.9    32    3.8    34      8.6    847     0.00     532     44.9
  31   13:40   46.4    32    2.5    43      6.4    847     0.00     519     45.3
  31   13:50   46.3    32    3.3    84      7.2    847     0.00     503     45.6
  31   14:00   46.6    32    3.2     1      7.0    847     0.00     486     45.9
  31   14:10   47.5    32    3.3    69      6.1    847     0.00     468     46.1
  31   14:20   47.9    33    3.2    75      8.3    847     0.00     449     46.3
  31   14:30   48.0    32    2.7    86      6.6    847     0.00     430     46.5
  31   14:40   48.0    32    4.3    77      7.7    847     0.00     407     46.7
  31   14:50   47.7    33    5.2    40      9.6    847     0.00     382     46.8
  31   15:00   47.4    35    5.7    16     11.7    847     0.00     356     46.9
  31   15:10   47.4    33    7.2    38     11.2    847     0.00     330     47.0
  31   15:20   47.4    32    7.0    36      9.9    847     0.00     303     46.9
  31   15:30   47.5    32    6.2    48      9.4    847     0.00     276     46.9
  31   15:40   47.1    33    6.2    53      9.6    847     0.00     249     46.7
  31   15:50   46.9    35    6.5    50      9.4    847     0.00     221     46.3
  31   16:00   46.7    35    6.8    45      9.6    847     0.00     196     45.9
  31   16:10   46.2    32    7.3    46     10.2    847     0.00     166     45.6
  31   16:20   46.0    31    6.3    57      8.3    847     0.00     138     45.3
  31   16:30   45.6    30    5.7    61      7.7    847     0.00      96     45.0
  31   16:40   45.0    30    4.8    58      7.1    847     0.00      60     44.8
  31   16:50   44.3    32    4.0    44      5.6    847     0.00      16     44.5
  31   17:00   42.6    36    3.9    21      6.4    847     0.00      10     44.2
  31   17:10   40.7    40    2.8   289      3.9    848     0.00       6     43.9
  31   17:20   41.1    41    2.0   283      4.5    848     0.00       3     43.5

Return to Carson Sink graphs page.


Western Regional Climate Center,wrcc@dri.edu